Time;durP1;ratioP1;P1;durP2;ratioP2;P2;SDS_P1;SDS_P2;PMS_P1;PMS_P2;Temp;Humidity;BMP_temperature;BMP_pressure;BME280_temperature;BME280_humidity;BME280_pressure;Samples;Min_cycle;Max_cycle;Signal;HPM_P1;HPM_P2
2023/04/15 00:00:50;;;;;;;6.77;3.70;;;;;;;;;;5018154;28;22293;-74
2023/04/15 00:03:15;;;;;;;8.20;4.47;;;;;;;;;;5019874;28;20619;-74
2023/04/15 00:05:41;;;;;;;7.23;4.00;;;;;;;;;;5025264;28;20188;-74
2023/04/15 00:08:06;;;;;;;7.50;4.27;;;;;;;;;;5024855;28;20163;-74
2023/04/15 00:10:32;;;;;;;5.97;4.23;;;;;;;;;;5025119;28;20225;-74
2023/04/15 00:12:57;;;;;;;7.67;4.10;;;;;;;;;;5020094;28;20218;-75
2023/04/15 00:15:22;;;;;;;6.80;3.93;;;;;;;;;;5015017;28;20178;-75
2023/04/15 00:17:49;;;;;;;11.60;4.77;;;;;;;;;;5021448;28;20236;-75
2023/04/15 00:20:14;;;;;;;12.47;4.57;;;;;;;;;;5008856;28;20202;-74
2023/04/15 00:22:39;;;;;;;4.27;3.80;;;;;;;;;;5012576;28;20175;-74
2023/04/15 00:25:04;;;;;;;5.17;3.70;;;;;;;;;;5012496;28;20167;-75
2023/04/15 00:27:30;;;;;;;8.63;4.10;;;;;;;;;;5014492;28;20167;-75
2023/04/15 00:29:56;;;;;;;6.63;3.70;;;;;;;;;;5013037;28;20199;-75
2023/04/15 00:32:22;;;;;;;6.30;4.10;;;;;;;;;;5021584;28;20202;-76
2023/04/15 00:34:48;;;;;;;8.73;4.57;;;;;;;;;;5014238;28;20186;-75
2023/04/15 00:37:13;;;;;;;5.43;4.23;;;;;;;;;;5013136;28;20183;-75
2023/04/15 00:39:39;;;;;;;7.60;4.60;;;;;;;;;;5013045;28;20194;-75
2023/04/15 00:42:04;;;;;;;9.80;4.37;;;;;;;;;;5013284;28;20262;-75
2023/04/15 00:44:29;;;;;;;8.97;5.30;;;;;;;;;;5019513;28;20174;-75
2023/04/15 00:46:55;;;;;;;5.80;4.10;;;;;;;;;;5016704;28;20570;-74
2023/04/15 00:49:21;;;;;;;6.57;3.93;;;;;;;;;;5017545;28;20253;-75
2023/04/15 00:51:46;;;;;;;5.73;4.10;;;;;;;;;;5015844;28;20186;-74
2023/04/15 00:54:12;;;;;;;7.23;4.37;;;;;;;;;;5020325;28;20205;-75
2023/04/15 00:56:38;;;;;;;8.63;4.43;;;;;;;;;;5010267;28;20178;-74
2023/04/15 00:59:03;;;;;;;8.10;4.27;;;;;;;;;;5008173;28;20179;-74
2023/04/15 01:01:29;;;;;;;7.90;4.30;;;;;;;;;;5007312;28;20234;-74
2023/04/15 01:03:56;;;;;;;6.83;4.60;;;;;;;;;;5022088;28;20171;-74
2023/04/15 01:06:21;;;;;;;5.13;4.07;;;;;;;;;;5021979;28;20166;-74
2023/04/15 01:08:47;;;;;;;5.97;4.90;;;;;;;;;;5016699;28;20655;-74
2023/04/15 01:11:12;;;;;;;6.03;4.07;;;;;;;;;;5015994;28;20215;-73
2023/04/15 01:13:37;;;;;;;5.63;4.53;;;;;;;;;;5009441;28;20178;-74
2023/04/15 01:16:03;;;;;;;10.63;5.20;;;;;;;;;;5019476;28;20602;-76
2023/04/15 01:18:29;;;;;;;12.10;5.07;;;;;;;;;;5027019;28;20181;-74
2023/04/15 01:20:54;;;;;;;8.60;4.50;;;;;;;;;;5017750;28;20282;-74
2023/04/15 01:23:21;;;;;;;7.37;4.40;;;;;;;;;;5018995;28;20209;-74
2023/04/15 01:25:46;;;;;;;8.47;5.03;;;;;;;;;;5011819;28;20203;-74
2023/04/15 01:28:11;;;;;;;8.37;5.50;;;;;;;;;;5009775;28;20672;-73
2023/04/15 01:30:36;;;;;;;5.50;4.83;;;;;;;;;;5009596;28;20210;-74
2023/04/15 01:33:02;;;;;;;7.30;5.03;;;;;;;;;;5015935;28;20185;-74
2023/04/15 01:35:27;;;;;;;7.70;5.10;;;;;;;;;;5010898;28;20265;-74
2023/04/15 01:37:53;;;;;;;6.27;5.10;;;;;;;;;;5011947;28;20190;-73
2023/04/15 01:40:19;;;;;;;9.33;6.00;;;;;;;;;;5010761;28;20253;-73
2023/04/15 01:42:44;;;;;;;12.53;5.57;;;;;;;;;;5004493;28;20214;-74
2023/04/15 01:45:10;;;;;;;7.10;5.30;;;;;;;;;;5000601;28;20637;-74
2023/04/15 01:47:35;;;;;;;8.83;5.30;;;;;;;;;;5012450;28;20183;-73
2023/04/15 01:50:00;;;;;;;8.67;5.87;;;;;;;;;;5007171;28;20260;-74
2023/04/15 01:52:25;;;;;;;8.13;5.77;;;;;;;;;;5008374;28;20179;-74
2023/04/15 01:54:50;;;;;;;7.13;5.67;;;;;;;;;;5013219;28;20174;-74
2023/04/15 01:57:16;;;;;;;9.43;6.07;;;;;;;;;;5011804;28;20671;-73
2023/04/15 01:59:41;;;;;;;9.43;5.63;;;;;;;;;;5007688;28;20202;-74
2023/04/15 02:02:06;;;;;;;8.63;5.57;;;;;;;;;;5012650;28;20416;-74
2023/04/15 02:04:33;;;;;;;7.77;5.27;;;;;;;;;;5012204;28;20179;-74
2023/04/15 02:06:58;;;;;;;7.30;5.20;;;;;;;;;;5011262;28;20187;-74
2023/04/15 02:09:23;;;;;;;6.57;4.90;;;;;;;;;;5008870;28;20205;-74
2023/04/15 02:11:49;;;;;;;5.97;4.73;;;;;;;;;;5006561;28;20207;-74
2023/04/15 02:14:15;;;;;;;7.23;6.00;;;;;;;;;;5016632;28;20261;-74
2023/04/15 02:16:40;;;;;;;9.30;5.77;;;;;;;;;;5011600;28;20184;-73
2023/04/15 02:19:05;;;;;;;7.47;6.13;;;;;;;;;;5014016;28;20449;-73
2023/04/15 02:21:30;;;;;;;9.97;5.43;;;;;;;;;;5011128;28;20182;-74
2023/04/15 02:23:56;;;;;;;10.07;5.90;;;;;;;;;;5008048;28;20737;-74
2023/04/15 02:26:21;;;;;;;11.23;5.83;;;;;;;;;;5010201;28;20183;-74
2023/04/15 02:28:47;;;;;;;9.20;5.97;;;;;;;;;;5015546;28;20198;-74
2023/04/15 02:31:12;;;;;;;7.10;5.33;;;;;;;;;;5015329;28;20261;-74
2023/04/15 02:33:37;;;;;;;6.47;5.03;;;;;;;;;;5015308;28;20218;-74
2023/04/15 02:36:03;;;;;;;7.53;4.93;;;;;;;;;;5018122;28;20175;-75
2023/04/15 02:38:28;;;;;;;8.27;5.13;;;;;;;;;;5011840;28;20182;-74
2023/04/15 02:40:53;;;;;;;8.17;5.60;;;;;;;;;;5012461;28;20370;-74
2023/04/15 02:43:18;;;;;;;12.93;5.87;;;;;;;;;;5020511;28;20182;-74
2023/04/15 02:45:44;;;;;;;8.20;5.40;;;;;;;;;;5021282;28;20676;-74
2023/04/15 02:48:10;;;;;;;7.97;5.27;;;;;;;;;;5022741;28;20273;-74
2023/04/15 02:50:38;;;;;;;6.63;5.20;;;;;;;;;;5019041;28;20333;-74
2023/04/15 02:53:04;;;;;;;8.67;5.67;;;;;;;;;;5015389;28;20183;-74
2023/04/15 02:55:29;;;;;;;10.33;5.80;;;;;;;;;;5027986;28;20564;-74
2023/04/15 02:57:56;;;;;;;7.40;5.50;;;;;;;;;;5017273;28;20213;-74
2023/04/15 03:00:21;;;;;;;7.53;5.37;;;;;;;;;;5012548;28;20199;-75
2023/04/15 03:02:46;;;;;;;8.30;5.77;;;;;;;;;;5025232;28;20179;-74
2023/04/15 03:05:12;;;;;;;10.60;5.60;;;;;;;;;;5023986;28;20186;-74
2023/04/15 03:07:39;;;;;;;7.73;5.97;;;;;;;;;;5019006;28;20187;-75
2023/04/15 03:10:06;;;;;;;7.20;5.43;;;;;;;;;;5019786;28;20688;-74
2023/04/15 03:12:31;;;;;;;8.37;4.90;;;;;;;;;;5019698;28;20231;-75
2023/04/15 03:14:56;;;;;;;6.57;5.47;;;;;;;;;;5009768;28;20583;-74
2023/04/15 03:17:21;;;;;;;8.03;5.77;;;;;;;;;;5019295;28;20178;-74
2023/04/15 03:19:47;;;;;;;9.57;5.80;;;;;;;;;;5021972;28;20205;-74
2023/04/15 03:22:12;;;;;;;8.87;5.43;;;;;;;;;;5018431;28;20669;-74
2023/04/15 03:24:37;;;;;;;8.57;6.17;;;;;;;;;;5016497;28;20278;-74
2023/04/15 03:27:02;;;;;;;7.00;5.60;;;;;;;;;;5014182;28;20198;-74
2023/04/15 03:29:27;;;;;;;9.77;5.47;;;;;;;;;;5015255;28;20284;-75
2023/04/15 03:31:53;;;;;;;10.77;5.73;;;;;;;;;;5015212;28;20755;-75
2023/04/15 03:34:18;;;;;;;9.23;6.33;;;;;;;;;;5017823;28;20186;-74
2023/04/15 03:36:43;;;;;;;7.13;4.93;;;;;;;;;;5013544;28;20203;-74
2023/04/15 03:39:09;;;;;;;7.73;5.97;;;;;;;;;;5015946;28;20186;-75
2023/04/15 03:41:34;;;;;;;11.53;6.87;;;;;;;;;;5019621;28;20265;-74
2023/04/15 03:43:59;;;;;;;8.60;5.70;;;;;;;;;;5016680;28;20673;-75
2023/04/15 03:46:25;;;;;;;7.73;5.93;;;;;;;;;;5013601;28;20722;-75
2023/04/15 03:48:50;;;;;;;7.10;5.90;;;;;;;;;;5017240;28;20189;-74
2023/04/15 03:51:15;;;;;;;9.33;5.67;;;;;;;;;;5015245;28;20190;-75
2023/04/15 03:53:41;;;;;;;9.30;5.80;;;;;;;;;;5011226;28;20179;-74
2023/04/15 03:56:06;;;;;;;8.70;5.73;;;;;;;;;;5019408;28;20186;-74
2023/04/15 03:58:31;;;;;;;6.43;5.47;;;;;;;;;;5014447;28;20662;-74
2023/04/15 04:00:56;;;;;;;12.20;6.17;;;;;;;;;;5011886;28;20412;-74
2023/04/15 04:03:22;;;;;;;8.50;5.50;;;;;;;;;;5013785;28;20179;-74
2023/04/15 04:05:47;;;;;;;7.50;5.60;;;;;;;;;;5010484;28;20179;-74
2023/04/15 04:08:12;;;;;;;7.50;4.90;;;;;;;;;;5024535;28;20174;-75
2023/04/15 04:10:38;;;;;;;8.53;5.63;;;;;;;;;;5017938;28;20222;-75
2023/04/15 04:13:03;;;;;;;10.70;6.73;;;;;;;;;;5017468;28;20181;-74
2023/04/15 04:15:28;;;;;;;8.83;6.30;;;;;;;;;;5020439;28;20171;-75
2023/04/15 04:17:53;;;;;;;11.13;6.07;;;;;;;;;;5011053;28;20175;-74
2023/04/15 04:20:19;;;;;;;9.37;5.73;;;;;;;;;;5014583;28;20230;-75
2023/04/15 04:22:44;;;;;;;11.40;6.07;;;;;;;;;;5019909;28;20174;-74
2023/04/15 04:25:10;;;;;;;8.13;6.30;;;;;;;;;;5010522;28;20186;-75
2023/04/15 04:27:35;;;;;;;9.37;6.57;;;;;;;;;;5018093;28;20544;-74
2023/04/15 04:30:00;;;;;;;8.67;6.17;;;;;;;;;;5019105;28;20681;-74
2023/04/15 04:32:26;;;;;;;7.80;5.83;;;;;;;;;;5015130;28;20245;-75
2023/04/15 04:34:51;;;;;;;8.63;5.47;;;;;;;;;;5014087;28;20171;-74
2023/04/15 04:37:16;;;;;;;8.20;5.80;;;;;;;;;;5015317;28;20657;-75
2023/04/15 04:39:41;;;;;;;10.40;5.70;;;;;;;;;;5018033;28;20751;-75
2023/04/15 04:42:06;;;;;;;9.77;6.43;;;;;;;;;;5014561;28;20574;-74
2023/04/15 04:44:32;;;;;;;9.53;6.07;;;;;;;;;;5016429;28;20178;-73
2023/04/15 04:46:57;;;;;;;11.83;5.90;;;;;;;;;;5012136;28;20183;-74
2023/04/15 04:49:22;;;;;;;9.37;6.20;;;;;;;;;;5008077;28;20195;-74
2023/04/15 04:51:47;;;;;;;9.30;6.80;;;;;;;;;;5011903;28;20583;-73
2023/04/15 04:54:13;;;;;;;8.43;6.23;;;;;;;;;;5017569;28;20541;-73
2023/04/15 04:56:38;;;;;;;13.10;6.37;;;;;;;;;;5015687;28;20186;-75
2023/04/15 04:59:04;;;;;;;12.23;6.43;;;;;;;;;;5017909;28;20233;-75
2023/04/15 05:01:29;;;;;;;9.83;6.57;;;;;;;;;;5018049;28;20670;-76
2023/04/15 05:03:54;;;;;;;10.13;6.60;;;;;;;;;;5014839;28;20179;-75
2023/04/15 05:06:19;;;;;;;11.90;6.70;;;;;;;;;;5015927;28;20178;-73
2023/04/15 05:08:45;;;;;;;13.13;7.27;;;;;;;;;;5014458;28;20183;-74
2023/04/15 05:11:11;;;;;;;10.90;7.17;;;;;;;;;;5030247;28;20216;-74
2023/04/15 05:13:37;;;;;;;8.30;5.97;;;;;;;;;;5011744;28;20183;-74
2023/04/15 05:16:03;;;;;;;13.63;7.17;;;;;;;;;;5013275;28;20179;-75
2023/04/15 05:18:28;;;;;;;9.20;6.87;;;;;;;;;;5011163;28;20229;-75
2023/04/15 05:20:54;;;;;;;8.63;6.10;;;;;;;;;;5016369;28;20195;-75
2023/04/15 05:23:19;;;;;;;8.93;6.37;;;;;;;;;;5013426;28;20179;-74
2023/04/15 05:25:44;;;;;;;9.43;6.90;;;;;;;;;;5013427;28;20178;-75
2023/04/15 05:28:10;;;;;;;8.87;6.47;;;;;;;;;;5014096;28;20174;-75
2023/04/15 05:30:35;;;;;;;8.50;6.37;;;;;;;;;;5012900;28;20206;-75
2023/04/15 05:33:00;;;;;;;9.03;6.80;;;;;;;;;;5012928;28;20187;-75
2023/04/15 05:35:26;;;;;;;10.50;7.00;;;;;;;;;;5015952;28;20170;-75
2023/04/15 05:37:51;;;;;;;8.77;6.53;;;;;;;;;;5013275;28;20182;-75
2023/04/15 05:40:16;;;;;;;9.50;7.00;;;;;;;;;;5012039;28;20194;-75
2023/04/15 05:42:41;;;;;;;11.30;7.13;;;;;;;;;;5011194;28;20289;-75
2023/04/15 05:45:08;;;;;;;9.50;6.87;;;;;;;;;;5012518;28;20711;-74
2023/04/15 05:47:34;;;;;;;11.63;6.93;;;;;;;;;;5017297;28;20179;-75
2023/04/15 05:49:59;;;;;;;17.70;7.50;;;;;;;;;;5011551;28;20202;-75
2023/04/15 05:52:25;;;;;;;13.03;6.57;;;;;;;;;;5011771;28;20215;-74
2023/04/15 05:54:50;;;;;;;9.70;6.87;;;;;;;;;;5012577;28;20190;-75
2023/04/15 05:57:15;;;;;;;11.77;7.20;;;;;;;;;;5011782;28;20189;-75
2023/04/15 05:59:41;;;;;;;10.47;6.80;;;;;;;;;;5007624;28;20202;-75
2023/04/15 06:02:07;;;;;;;8.47;5.93;;;;;;;;;;5008722;28;20712;-75
2023/04/15 06:04:32;;;;;;;9.40;6.80;;;;;;;;;;5011716;28;20183;-75
2023/04/15 06:06:57;;;;;;;10.80;7.00;;;;;;;;;;5008434;28;20184;-74
2023/04/15 06:09:22;;;;;;;8.97;6.43;;;;;;;;;;5011202;28;20286;-75
2023/04/15 06:11:48;;;;;;;11.23;7.00;;;;;;;;;;5012619;28;20210;-75
2023/04/15 06:14:13;;;;;;;8.93;6.63;;;;;;;;;;5010852;28;20657;-75
2023/04/15 06:16:38;;;;;;;8.07;5.87;;;;;;;;;;5010573;28;20183;-73
2023/04/15 06:19:03;;;;;;;9.93;6.83;;;;;;;;;;5012825;28;20183;-74
2023/04/15 06:21:28;;;;;;;7.57;5.60;;;;;;;;;;5019512;28;20177;-74
2023/04/15 06:23:55;;;;;;;8.20;6.07;;;;;;;;;;5012972;28;20190;-74
2023/04/15 06:26:20;;;;;;;9.90;6.53;;;;;;;;;;5019803;28;20182;-74
2023/04/15 06:28:46;;;;;;;10.80;5.97;;;;;;;;;;5018373;28;20205;-74
2023/04/15 06:31:11;;;;;;;10.87;6.37;;;;;;;;;;5015596;28;20210;-74
2023/04/15 06:33:36;;;;;;;8.83;6.33;;;;;;;;;;5014890;28;20189;-74
2023/04/15 06:36:01;;;;;;;9.70;6.13;;;;;;;;;;5013675;28;20172;-74
2023/04/15 06:38:27;;;;;;;9.10;6.20;;;;;;;;;;5017106;28;20176;-74
2023/04/15 06:40:52;;;;;;;8.57;6.27;;;;;;;;;;5014875;28;20207;-74
2023/04/15 06:43:17;;;;;;;11.40;6.73;;;;;;;;;;5014591;28;20182;-74
2023/04/15 06:45:42;;;;;;;8.90;6.10;;;;;;;;;;5015018;28;20249;-75
2023/04/15 06:48:08;;;;;;;9.13;5.60;;;;;;;;;;5020896;28;20183;-75
2023/04/15 06:50:34;;;;;;;8.97;6.83;;;;;;;;;;5033634;28;20233;-74
2023/04/15 06:52:59;;;;;;;10.60;6.40;;;;;;;;;;5052718;28;20235;-74
2023/04/15 06:55:24;;;;;;;10.23;5.90;;;;;;;;;;5023541;28;20186;-75
2023/04/15 06:57:50;;;;;;;8.43;6.20;;;;;;;;;;5025240;28;20624;-74
2023/04/15 07:00:16;;;;;;;7.43;5.70;;;;;;;;;;5032408;28;20193;-75
2023/04/15 07:02:41;;;;;;;7.87;5.77;;;;;;;;;;5012135;28;20174;-75
2023/04/15 07:05:07;;;;;;;7.60;6.07;;;;;;;;;;5011354;28;20206;-75
2023/04/15 07:07:32;;;;;;;14.23;6.60;;;;;;;;;;5014602;28;20175;-75
2023/04/15 07:09:57;;;;;;;8.30;5.07;;;;;;;;;;5019876;28;20202;-75
2023/04/15 07:12:23;;;;;;;10.50;5.50;;;;;;;;;;5014887;28;20668;-75
2023/04/15 07:14:48;;;;;;;9.50;6.00;;;;;;;;;;5024538;28;20229;-75
2023/04/15 07:17:13;;;;;;;10.33;6.27;;;;;;;;;;5016093;28;20675;-75
2023/04/15 07:19:38;;;;;;;7.70;5.97;;;;;;;;;;5016757;28;20296;-75
2023/04/15 07:22:04;;;;;;;7.50;5.57;;;;;;;;;;5026440;28;20198;-75
2023/04/15 07:24:29;;;;;;;7.80;5.77;;;;;;;;;;5018503;28;20616;-75
2023/04/15 07:26:56;;;;;;;11.00;6.60;;;;;;;;;;5025072;28;20450;-75
2023/04/15 07:29:22;;;;;;;9.43;6.13;;;;;;;;;;5020562;28;20680;-75
2023/04/15 07:31:47;;;;;;;9.27;6.10;;;;;;;;;;5026263;28;20194;-75
2023/04/15 07:34:12;;;;;;;8.18;5.43;;;;;;;;;;5010490;28;20242;-75
2023/04/15 07:36:37;;;;;;;9.20;6.20;;;;;;;;;;5030159;28;20532;-75
2023/04/15 07:39:03;;;;;;;7.27;5.33;;;;;;;;;;5025822;28;20579;-75
2023/04/15 07:41:29;;;;;;;7.75;5.57;;;;;;;;;;5027441;28;20229;-75
2023/04/15 07:43:54;;;;;;;9.85;5.80;;;;;;;;;;5014463;28;20183;-75
2023/04/15 07:46:20;;;;;;;7.03;5.18;;;;;;;;;;5023430;28;20190;-75
2023/04/15 07:48:45;;;;;;;6.95;4.95;;;;;;;;;;5015091;28;20179;-75
2023/04/15 07:51:11;;;;;;;5.50;4.07;;;;;;;;;;5018811;28;20730;-75
2023/04/15 07:53:37;;;;;;;7.32;4.28;;;;;;;;;;5013641;28;20194;-75
2023/04/15 07:56:02;;;;;;;5.68;4.43;;;;;;;;;;5030495;28;20166;-75
2023/04/15 07:58:27;;;;;;;6.07;4.22;;;;;;;;;;5019109;28;20203;-76
2023/04/15 08:00:54;;;;;;;6.68;3.97;;;;;;;;;;5021292;28;20640;-76
2023/04/15 08:03:20;;;;;;;5.88;4.45;;;;;;;;;;5015986;28;20571;-76
2023/04/15 08:05:46;;;;;;;6.90;3.80;;;;;;;;;;5016301;28;20175;-76
2023/04/15 08:08:11;;;;;;;6.57;4.55;;;;;;;;;;5025566;28;20736;-76
2023/04/15 08:10:36;;;;;;;5.53;3.65;;;;;;;;;;5018908;28;20210;-76
2023/04/15 08:13:02;;;;;;;5.30;3.88;;;;;;;;;;5023737;28;20674;-76
2023/04/15 08:15:27;;;;;;;5.60;3.38;;;;;;;;;;5015837;28;20179;-75
2023/04/15 08:17:52;;;;;;;4.70;3.72;;;;;;;;;;5027073;28;20173;-76
2023/04/15 08:20:18;;;;;;;7.50;3.85;;;;;;;;;;5021418;28;20234;-75
2023/04/15 08:22:43;;;;;;;4.43;3.47;;;;;;;;;;5020663;28;20265;-76
2023/04/15 08:25:09;;;;;;;6.55;3.75;;;;;;;;;;5007653;28;20207;-76
2023/04/15 08:27:35;;;;;;;7.95;4.03;;;;;;;;;;5025217;28;20178;-76
2023/04/15 08:30:00;;;;;;;4.75;3.90;;;;;;;;;;5007593;28;20212;-76
2023/04/15 08:32:26;;;;;;;6.00;3.78;;;;;;;;;;5019945;28;20241;-76
2023/04/15 08:34:52;;;;;;;6.30;3.60;;;;;;;;;;5009996;28;20175;-76
2023/04/15 08:37:17;;;;;;;5.40;3.03;;;;;;;;;;5023147;28;20175;-76
2023/04/15 08:39:44;;;;;;;8.38;3.72;;;;;;;;;;5020792;28;20233;-76
2023/04/15 08:42:15;;;;;;;4.57;3.15;;;;;;;;;;5007647;28;20207;-76
2023/04/15 08:44:41;;;;;;;5.30;3.22;;;;;;;;;;5012970;28;20653;-76
2023/04/15 08:47:07;;;;;;;5.60;3.85;;;;;;;;;;5011262;28;20210;-76
2023/04/15 08:49:33;;;;;;;6.90;3.92;;;;;;;;;;5013398;28;20195;-76
2023/04/15 08:51:59;;;;;;;6.15;3.70;;;;;;;;;;5024250;28;20504;-76
2023/04/15 08:54:24;;;;;;;5.28;3.75;;;;;;;;;;5017449;28;20245;-76
2023/04/15 08:56:51;;;;;;;6.40;3.47;;;;;;;;;;5020711;28;20653;-76
2023/04/15 08:59:16;;;;;;;6.90;3.08;;;;;;;;;;5021505;28;20248;-76
2023/04/15 09:01:42;;;;;;;4.32;3.10;;;;;;;;;;5012913;28;20180;-76
2023/04/15 09:04:07;;;;;;;5.07;3.10;;;;;;;;;;5019007;28;20396;-76
2023/04/15 09:06:33;;;;;;;3.90;3.03;;;;;;;;;;5013925;28;20205;-75
2023/04/15 09:08:58;;;;;;;4.47;3.15;;;;;;;;;;5018319;28;20190;-78
2023/04/15 09:11:23;;;;;;;5.85;3.65;;;;;;;;;;5015232;28;20577;-76
2023/04/15 09:13:49;;;;;;;5.22;3.92;;;;;;;;;;5020011;28;20204;-76
2023/04/15 09:16:14;;;;;;;5.60;2.90;;;;;;;;;;5018305;28;20186;-76
2023/04/15 09:18:39;;;;;;;4.53;2.60;;;;;;;;;;5028366;28;20201;-75
2023/04/15 09:21:07;;;;;;;4.18;2.47;;;;;;;;;;5022386;28;20207;-75
2023/04/15 09:23:33;;;;;;;10.10;3.10;;;;;;;;;;5017633;28;20179;-76
2023/04/15 09:25:58;;;;;;;4.38;3.08;;;;;;;;;;5013342;28;20610;-76
2023/04/15 09:28:24;;;;;;;5.07;2.92;;;;;;;;;;5018539;28;20732;-76
2023/04/15 09:30:51;;;;;;;4.03;2.10;;;;;;;;;;5022913;28;20285;-77
2023/04/15 09:33:16;;;;;;;3.58;2.30;;;;;;;;;;5021689;28;20265;-77
2023/04/15 09:35:45;;;;;;;2.80;2.22;;;;;;;;;;5020777;28;20257;-76
2023/04/15 09:38:11;;;;;;;4.20;2.60;;;;;;;;;;5016760;28;20361;-76
2023/04/15 09:40:38;;;;;;;2.40;1.73;;;;;;;;;;5014318;28;20569;-77
2023/04/15 09:43:04;;;;;;;2.58;1.73;;;;;;;;;;5016036;28;20163;-76
2023/04/15 09:45:30;;;;;;;3.03;2.42;;;;;;;;;;5019946;28;20174;-75
2023/04/15 09:47:56;;;;;;;2.97;1.65;;;;;;;;;;5017740;28;20236;-76
2023/04/15 09:50:21;;;;;;;3.97;1.63;;;;;;;;;;5010329;28;20203;-75
2023/04/15 09:52:47;;;;;;;2.58;1.45;;;;;;;;;;5020088;28;20241;-75
2023/04/15 09:55:13;;;;;;;3.78;1.70;;;;;;;;;;5013537;28;20194;-75
2023/04/15 09:57:40;;;;;;;2.78;1.80;;;;;;;;;;5020560;28;20182;-76
2023/04/15 10:00:07;;;;;;;3.35;1.98;;;;;;;;;;5011552;28;20664;-76
2023/04/15 10:02:32;;;;;;;2.55;2.28;;;;;;;;;;5003579;28;20179;-76
2023/04/15 10:04:58;;;;;;;4.57;2.45;;;;;;;;;;5009809;28;20182;-76
2023/04/15 10:07:24;;;;;;;4.30;1.98;;;;;;;;;;5015375;28;20183;-76
2023/04/15 10:09:50;;;;;;;4.82;2.20;;;;;;;;;;5020236;28;20490;-76
2023/04/15 10:12:16;;;;;;;4.03;2.53;;;;;;;;;;5013556;28;20235;-76
2023/04/15 10:14:41;;;;;;;4.22;2.50;;;;;;;;;;5007573;28;20175;-76
2023/04/15 10:17:09;;;;;;;6.90;2.53;;;;;;;;;;5012528;28;20547;-76
2023/04/15 10:19:36;;;;;;;4.93;2.33;;;;;;;;;;5014605;28;20241;-77
2023/04/15 10:22:01;;;;;;;3.45;2.45;;;;;;;;;;5018513;28;20183;-76
2023/04/15 10:24:27;;;;;;;5.50;2.20;;;;;;;;;;5013158;28;22059;-75
2023/04/15 10:26:52;;;;;;;5.60;2.00;;;;;;;;;;5023140;28;20168;-76
2023/04/15 10:29:18;;;;;;;3.35;1.80;;;;;;;;;;5019753;28;20205;-75
2023/04/15 10:31:44;;;;;;;3.15;1.60;;;;;;;;;;5020322;28;20226;-76
2023/04/15 10:34:11;;;;;;;3.17;1.33;;;;;;;;;;5018615;28;20182;-77
2023/04/15 10:36:36;;;;;;;1.60;1.23;;;;;;;;;;5016109;28;20270;-76
2023/04/15 10:39:01;;;;;;;2.60;1.50;;;;;;;;;;5011765;28;20206;-76
2023/04/15 10:41:32;;;;;;;3.25;1.20;;;;;;;;;;5025574;28;20325;-76
2023/04/15 10:44:01;;;;;;;1.73;1.42;;;;;;;;;;5023860;28;20179;-76
2023/04/15 10:46:43;;;;;;;1.77;1.63;;;;;;;;;;5009396;28;20617;-76
2023/04/15 10:49:09;;;;;;;2.10;1.65;;;;;;;;;;5014005;28;20195;-76
2023/04/15 10:51:36;;;;;;;2.08;1.70;;;;;;;;;;5021484;28;20199;-76
2023/04/15 10:54:01;;;;;;;3.80;2.17;;;;;;;;;;5027360;28;20191;-76
2023/04/15 10:56:30;;;;;;;3.03;2.15;;;;;;;;;;5016043;28;20182;-76
2023/04/15 10:58:57;;;;;;;2.20;2.00;;;;;;;;;;5018068;28;20197;-76
2023/04/15 11:01:42;;;;;;;3.30;1.75;;;;;;;;;;5018100;28;20286;-76
2023/04/15 11:04:07;;;;;;;3.70;1.80;;;;;;;;;;5024200;28;20162;-76
2023/04/15 11:06:45;;;;;;;2.40;1.77;;;;;;;;;;5016622;28;20261;-75
2023/04/15 11:09:29;;;;;;;2.83;1.80;;;;;;;;;;5014927;28;20207;-76
2023/04/15 11:12:07;;;;;;;4.63;2.13;;;;;;;;;;5006812;28;20206;-75
2023/04/15 11:14:34;;;;;;;4.03;1.70;;;;;;;;;;5008622;28;20682;-73
2023/04/15 11:17:00;;;;;;;3.70;2.42;;;;;;;;;;5012171;28;20186;-76
2023/04/15 11:19:26;;;;;;;5.18;2.10;;;;;;;;;;5014772;28;20196;-74
2023/04/15 11:21:51;;;;;;;6.30;2.13;;;;;;;;;;5023927;28;20169;-75
2023/04/15 11:24:25;;;;;;;2.80;2.40;;;;;;;;;;5040757;28;20194;-76
2023/04/15 11:26:56;;;;;;;2.92;2.42;;;;;;;;;;5041854;28;20185;-76
2023/04/15 11:29:21;;;;;;;2.92;2.53;;;;;;;;;;5027637;28;20217;-75
2023/04/15 11:31:48;;;;;;;2.60;2.08;;;;;;;;;;5023839;28;20194;-75
2023/04/15 11:34:21;;;;;;;6.57;2.80;;;;;;;;;;5018578;28;20703;-76
2023/04/15 11:36:47;;;;;;;3.05;2.47;;;;;;;;;;5022646;28;20179;-76
2023/04/15 11:39:12;;;;;;;4.03;2.40;;;;;;;;;;5018143;28;20191;-75
2023/04/15 11:41:37;;;;;;;3.58;2.80;;;;;;;;;;5025266;28;20437;-75
2023/04/15 11:44:15;;;;;;;3.08;2.30;;;;;;;;;;5024037;28;20206;-75
2023/04/15 11:46:40;;;;;;;4.35;2.38;;;;;;;;;;5024628;28;20229;-75
2023/04/15 11:49:05;;;;;;;3.63;2.30;;;;;;;;;;5025925;28;20206;-75
2023/04/15 11:51:33;;;;;;;6.72;2.72;;;;;;;;;;5026608;28;20285;-76
2023/04/15 11:53:59;;;;;;;3.30;1.92;;;;;;;;;;5028369;28;20175;-76
2023/04/15 11:56:25;;;;;;;6.78;2.63;;;;;;;;;;5024423;28;20624;-76
2023/04/15 11:58:55;;;;;;;4.57;2.30;;;;;;;;;;5017492;28;20285;-77
2023/04/15 12:01:29;;;;;;;4.15;2.17;;;;;;;;;;5002549;28;20172;-77
2023/04/15 12:03:55;;;;;;;3.05;1.90;;;;;;;;;;5009857;28;20175;-76
2023/04/15 12:06:24;;;;;;;2.08;1.65;;;;;;;;;;5011973;28;20191;-77
2023/04/15 12:08:52;;;;;;;2.13;1.70;;;;;;;;;;5010034;28;20177;-76
2023/04/15 12:11:30;;;;;;;2.03;1.52;;;;;;;;;;5012752;28;20202;-76
2023/04/15 12:13:56;;;;;;;2.33;1.27;;;;;;;;;;5018080;28;20182;-77
2023/04/15 12:16:22;;;;;;;1.65;1.33;;;;;;;;;;5011323;28;20179;-77
2023/04/15 12:18:51;;;;;;;3.47;1.52;;;;;;;;;;5013526;28;20170;-77
2023/04/15 12:21:20;;;;;;;2.53;1.80;;;;;;;;;;5024798;28;20182;-77
2023/04/15 12:23:49;;;;;;;1.98;1.55;;;;;;;;;;5023924;28;20265;-77
2023/04/15 12:26:14;;;;;;;1.23;1.13;;;;;;;;;;5027602;28;20230;-77
2023/04/15 12:28:41;;;;;;;2.75;1.75;;;;;;;;;;5025187;28;20588;-77
2023/04/15 12:31:09;;;;;;;3.05;1.55;;;;;;;;;;5019490;28;20203;-77
2023/04/15 12:33:35;;;;;;;3.20;1.83;;;;;;;;;;5018892;28;20274;-77
2023/04/15 12:36:00;;;;;;;1.50;1.40;;;;;;;;;;5006643;28;20513;-77
2023/04/15 12:38:25;;;;;;;1.98;1.55;;;;;;;;;;5019230;28;20181;-77
2023/04/15 12:40:50;;;;;;;4.03;2.00;;;;;;;;;;5016778;28;20261;-77
2023/04/15 12:43:16;;;;;;;3.35;1.52;;;;;;;;;;5014796;28;20206;-77
2023/04/15 12:45:41;;;;;;;1.90;1.40;;;;;;;;;;5016656;28;20207;-77
2023/04/15 12:48:08;;;;;;;3.13;2.15;;;;;;;;;;5017973;28;20185;-76
2023/04/15 12:50:33;;;;;;;2.53;1.80;;;;;;;;;;5011643;28;20235;-77
2023/04/15 12:52:58;;;;;;;2.58;1.67;;;;;;;;;;5016680;28;20248;-77
2023/04/15 12:55:23;;;;;;;5.63;1.75;;;;;;;;;;5015956;28;20205;-75
2023/04/15 12:57:48;;;;;;;2.50;1.88;;;;;;;;;;5015204;28;20622;-77
2023/04/15 13:00:14;;;;;;;2.03;1.60;;;;;;;;;;5014838;28;20203;-76
2023/04/15 13:02:39;;;;;;;3.95;2.03;;;;;;;;;;5004602;28;20511;-76
2023/04/15 13:05:05;;;;;;;1.95;1.63;;;;;;;;;;5017381;28;20224;-76
2023/04/15 13:07:30;;;;;;;2.50;1.48;;;;;;;;;;5010699;28;20669;-76
2023/04/15 13:09:55;;;;;;;2.38;1.85;;;;;;;;;;5011259;28;20755;-76
2023/04/15 13:12:20;;;;;;;3.13;1.40;;;;;;;;;;5011397;28;20210;-76
2023/04/15 13:14:46;;;;;;;2.23;1.53;;;;;;;;;;5013197;28;20193;-75
2023/04/15 13:17:11;;;;;;;1.92;1.30;;;;;;;;;;5010836;28;20459;-76
2023/04/15 13:19:37;;;;;;;2.17;1.98;;;;;;;;;;5012668;28;20693;-76
2023/04/15 13:22:03;;;;;;;1.58;1.30;;;;;;;;;;5018806;28;20193;-78
2023/04/15 13:24:28;;;;;;;1.45;1.02;;;;;;;;;;5021460;28;20593;-76
2023/04/15 13:26:53;;;;;;;3.10;1.30;;;;;;;;;;5016688;28;20217;-77
2023/04/15 13:29:19;;;;;;;4.30;1.40;;;;;;;;;;5016757;28;20684;-77
2023/04/15 13:31:44;;;;;;;3.47;1.30;;;;;;;;;;5024173;28;20205;-78
2023/04/15 13:34:09;;;;;;;2.20;1.10;;;;;;;;;;5014976;28;20179;-77
2023/04/15 13:36:35;;;;;;;3.30;1.17;;;;;;;;;;5011157;28;20171;-75
2023/04/15 13:39:00;;;;;;;1.58;1.05;;;;;;;;;;5029179;28;20261;-76
2023/04/15 13:41:25;;;;;;;5.05;1.23;;;;;;;;;;5014427;28;20329;-77
2023/04/15 13:43:50;;;;;;;2.88;0.85;;;;;;;;;;5012526;28;20672;-77
2023/04/15 13:46:15;;;;;;;3.15;1.50;;;;;;;;;;5014982;28;20190;-77
2023/04/15 13:48:41;;;;;;;5.70;1.45;;;;;;;;;;5015069;28;20195;-77
2023/04/15 13:51:06;;;;;;;0.80;0.80;;;;;;;;;;5005802;28;20250;-77
2023/04/15 13:53:32;;;;;;;2.70;0.88;;;;;;;;;;5008088;28;20186;-76
2023/04/15 13:55:57;;;;;;;1.75;1.13;;;;;;;;;;5009404;28;20175;-76
2023/04/15 13:58:22;;;;;;;1.58;1.48;;;;;;;;;;5010492;28;20222;-76
2023/04/15 14:00:47;;;;;;;0.75;0.63;;;;;;;;;;5012216;28;20195;-76
2023/04/15 14:03:12;;;;;;;3.20;1.20;;;;;;;;;;5017075;28;20197;-75
2023/04/15 14:05:38;;;;;;;2.20;0.90;;;;;;;;;;5025269;28;20285;-76
2023/04/15 14:08:03;;;;;;;1.95;1.00;;;;;;;;;;5010582;28;20189;-77
2023/04/15 14:10:28;;;;;;;1.00;0.90;;;;;;;;;;5016989;28;20692;-76
2023/04/15 14:12:53;;;;;;;1.30;0.95;;;;;;;;;;5008981;28;20532;-77
2023/04/15 14:15:19;;;;;;;1.10;0.80;;;;;;;;;;5008868;28;20637;-77
2023/04/15 14:17:44;;;;;;;1.92;1.05;;;;;;;;;;5013692;28;20206;-77
2023/04/15 14:20:09;;;;;;;1.30;0.70;;;;;;;;;;5013743;28;20203;-76
2023/04/15 14:22:35;;;;;;;1.10;0.70;;;;;;;;;;5013458;28;20173;-77
2023/04/15 14:25:00;;;;;;;2.45;0.70;;;;;;;;;;5008542;28;20179;-77
2023/04/15 14:27:25;;;;;;;2.80;0.93;;;;;;;;;;5012600;28;20577;-76
2023/04/15 14:29:52;;;;;;;2.33;0.80;;;;;;;;;;5010170;28;20657;-77
2023/04/15 14:32:17;;;;;;;0.75;0.60;;;;;;;;;;5014167;28;20195;-76